Thunder radar more information blitzortung!


Radar de pluja more information rain snow radar


Visita la nostra xarxa de llocs de meteo:

Template documentation
and downloads

And another site



No particular awareness of the weather is required.    There are no Weather-warnings

Pagina Historial Weather Underground text

Diari Resum May 17, 2017 Unitats:  Imperial    Mètric   Tant
« Previous Dia
SegĂźent Dia »
Diari Setmana Mensual Anual Personalitzada
  Maxima: Minima: Media:
Temperatura: 84.4 °F 57.6 °F 72.7 °F
Punt de rosada: 54.3 °F 39.2 °F 45.7 °F
Humitat: 68 % 25 % 40 %
Wind Speed: 12.7 mph 0 mph 3.5 mph
RĂ fegues de vent: 12.7 mph - -
Vent:- - SSW
Pression baro: 30.3 in 29.9 in -
Precipitacions: 0 in    
Historical Graphs
 
 
Dades de taula per May 17, 2017
Temps Temperatura Punt de rosada Pression baro Vent Wind Speed RĂ fegues de vent Humitat Rainfall Rate (Hourly)
00:02 66 °F 48.4 °F 30.3 in SW 2.3 mph 2.3 mph 53 % 0 in
00:05 59 °F 47.7 °F 30.2 in Calm     66 % 0 in
00:07 66 °F 48.4 °F 30.3 in WSW 1.6 mph 1.6 mph 53 % 0 in
00:15 59 °F 47.7 °F 30.2 in Calm     66 % 0 in
00:25 59.2 °F 48.2 °F 30.2 in Calm     67 % 0 in
00:35 59.4 °F 48.7 °F 30.2 in Calm     68 % 0 in
00:45 59.4 °F 48.7 °F 30.2 in Calm     68 % 0 in
00:55 59.2 °F 48.2 °F 30.2 in Calm     67 % 0 in
01:05 59 °F 48 °F 30.2 in Calm     67 % 0 in
01:15 58.3 °F 47.5 °F 30.2 in Calm     67 % 0 in
01:25 58.3 °F 47.8 °F 30.2 in Calm   1 mph 68 % 0 in
01:35 58.1 °F 47.7 °F 30.2 in Calm     68 % 0 in
01:45 57.9 °F 47.5 °F 30.2 in Calm   2 mph 68 % 0 in
01:55 57.6 °F 47.1 °F 30.2 in SE 2 mph 2 mph 68 % 0 in
02:05 57.7 °F 47.1 °F 30.2 in Calm   1 mph 68 % 0 in
02:15 58.1 °F 47.1 °F 30.2 in SW 1 mph 2 mph 67 % 0 in
02:25 59 °F 47.7 °F 30.2 in Calm   1 mph 66 % 0 in
02:35 60.1 °F 47.8 °F 30.2 in Calm     64 % 0 in
02:45 61.9 °F 49.6 °F 30.2 in Calm     64 % 0 in
02:55 63.3 °F 50.2 °F 30.2 in Calm     62 % 0 in
03:05 62.6 °F 48.9 °F 30.2 in Calm   2 mph 61 % 0 in
03:15 64.2 °F 50.5 °F 30.2 in Calm   2 mph 61 % 0 in
03:25 64.9 °F 50.4 °F 30.2 in SSE 1 mph 2 mph 59 % 0 in
03:35 64 °F 49.5 °F 30.2 in SSW 2 mph 2 mph 59 % 0 in
03:45 64.2 °F 49.1 °F 30.2 in Calm   2 mph 58 % 0 in
03:55 65.8 °F 50.5 °F 30.2 in SSW 1 mph 2 mph 58 % 0 in
04:05 67.3 °F 51.1 °F 30.2 in South 1 mph 2 mph 56 % 0 in
04:15 68 °F 51.3 °F 30.2 in South 1 mph 2 mph 55 % 0 in
04:25 69.6 °F 52.2 °F 30.2 in South 1 mph 2 mph 54 % 0 in
04:35 69.8 °F 51.4 °F 30.2 in ENE 1 mph 3 mph 52 % 0 in
04:45 70.7 °F 52.2 °F 30.2 in NE 1 mph 2 mph 52 % 0 in
04:55 71.8 °F 52.7 °F 30.2 in ENE 2 mph 2 mph 51 % 0 in
05:05 72.7 °F 53.1 °F 30.2 in ESE 1 mph 2 mph 50 % 0 in
05:15 73.9 °F 53.6 °F 30.2 in Calm   2 mph 49 % 0 in
05:25 73.2 °F 52.9 °F 30.2 in ENE 2 mph 3 mph 49 % 0 in
05:35 74.7 °F 53.1 °F 30.2 in East 2 mph 2 mph 47 % 0 in
05:45 74.8 °F 52.2 °F 30.2 in ESE 1 mph 3 mph 45 % 0 in
05:55 75.2 °F 52.3 °F 30.2 in East 1 mph 3 mph 45 % 0 in
06:05 76.1 °F 52.5 °F 30.2 in East 2 mph 3 mph 44 % 0 in
06:15 75.9 °F 51.3 °F 30.2 in ENE 2 mph 2 mph 42 % 0 in
06:20 76.3 °F 51.4 °F 30.2 in ENE 2 mph 2 mph 42 % 0 in
11:22 76.3 °F 51.4 °F 30.2 in South 2.3 mph 2.3 mph 42 % 0 in
11:27 77.7 °F 52.2 °F 30.2 in SW 3.5 mph 3.5 mph 41 % 0 in
11:32 78.3 °F 52.5 °F 30.2 in SE 3.5 mph 3.5 mph 41 % 0 in
11:37 77.5 °F 51.3 °F 30.2 in East 2.9 mph 2.9 mph 40 % 0 in
11:42 77.5 °F 52 °F 30.2 in ENE 2.3 mph 2.3 mph 41 % 0 in
11:47 77.7 °F 51.4 °F 30.2 in ENE 5.4 mph 5.4 mph 40 % 0 in
11:52 77.2 °F 51.1 °F 30.2 in ESE 2.3 mph 2.3 mph 40 % 0 in
11:57 77.9 °F 51.6 °F 30.2 in ESE 6.9 mph 6.9 mph 40 % 0 in
12:02 77.5 °F 51.3 °F 30.2 in ENE 3.5 mph 3.5 mph 40 % 0 in
12:07 78.1 °F 51.8 °F 30.2 in ESE 4.7 mph 4.7 mph 40 % 0 in
12:12 78.1 °F 51.8 °F 30.2 in SSE 4.6 mph 4.6 mph 40 % 0 in
12:17 78.8 °F 52.3 °F 30.2 in SW 5.8 mph 5.8 mph 40 % 0 in
12:19 79.3 °F 52.9 °F 30.2 in SW 3.5 mph 3.5 mph 40 % 0 in
12:24 80.2 °F 53.8 °F 30.2 in SSE 3.8 mph 3.8 mph 40 % 0 in
12:29 81.7 °F 54.3 °F 30.2 in East 3.5 mph 3.5 mph 39 % 0 in
12:34 81.1 °F 53.8 °F 30.2 in SSW 3.5 mph 3.5 mph 39 % 0 in
12:39 81.5 °F 53.4 °F 30.2 in SSE 4.9 mph 4.9 mph 38 % 0 in
12:44 80.8 °F 52.9 °F 30.2 in SSE 5.8 mph 5.8 mph 38 % 0 in
12:49 81.5 °F 53.4 °F 30.2 in ENE 4.6 mph 4.6 mph 38 % 0 in
12:54 80.8 °F 52.9 °F 30.2 in East 5.8 mph 5.8 mph 38 % 0 in
12:59 81 °F 53.8 °F 30.2 in NE 3.3 mph 3.3 mph 39 % 0 in
13:04 80.4 °F 53.2 °F 30.2 in ESE 4.6 mph 4.6 mph 39 % 0 in
13:09 80.4 °F 52.5 °F 30.2 in WSW 2 mph 2 mph 38 % 0 in
13:14 80.6 °F 51.3 °F 30.2 in ENE 4.6 mph 4.6 mph 36 % 0 in
13:19 80.8 °F 51.3 °F 30.2 in SW 4.6 mph 4.6 mph 36 % 0 in
13:24 81.9 °F 52.3 °F 30.2 in SW 2.3 mph 2.4 mph 36 % 0 in
13:29 82.8 °F 52.3 °F 30.2 in SW 3.5 mph 3.5 mph 35 % 0 in
13:34 83.3 °F 51.3 °F 30.2 in SSW 6.9 mph 6.9 mph 33 % 0 in
13:39 83.1 °F 51.1 °F 30.2 in SW 5.8 mph 5.8 mph 33 % 0 in
13:44 82.4 °F 48.7 °F 30.2 in West 6.9 mph 6.9 mph 31 % 0 in
13:49 83.1 °F 49.3 °F 30.2 in West 5.8 mph 5.8 mph 31 % 0 in
13:54 83.8 °F 49.1 °F 30.2 in West 9.4 mph 9.4 mph 30 % 0 in
13:59 83.5 °F 48.7 °F 30.2 in South 5.8 mph 5.8 mph 30 % 0 in
14:04 83.7 °F 48 °F 30.2 in West 11.5 mph 11.5 mph 29 % 0 in
14:09 83.5 °F 47.8 °F 30.1 in WSW 6.4 mph 6.4 mph 29 % 0 in
14:14 83.5 °F 47.8 °F 30.1 in West 5.8 mph 5.8 mph 29 % 0 in
14:19 83.3 °F 47.7 °F 30.1 in SW 4.6 mph 4.6 mph 29 % 0 in
14:24 83.3 °F 46.8 °F 30.1 in West 6.9 mph 6.9 mph 28 % 0 in
14:29 83.7 °F 47.1 °F 30.1 in South 8.1 mph 8.1 mph 28 % 0 in
14:34 83.7 °F 47.1 °F 30.1 in SW 6.9 mph 6.9 mph 28 % 0 in
14:39 83.3 °F 46.8 °F 30.1 in SW 5.8 mph 5.8 mph 28 % 0 in
14:44 83.5 °F 46.9 °F 30.1 in WSW 4.9 mph 4.9 mph 28 % 0 in
14:49 83.7 °F 47.1 °F 30.1 in SSW 3.5 mph 3.5 mph 28 % 0 in
14:54 83.5 °F 46.9 °F 30.1 in SW 10.4 mph 10.4 mph 28 % 0 in
14:55 83.5 °F 46.9 °F 30.1 in WSW 10.4 mph 10.4 mph 28 % 0 in
15:00 83.3 °F 46.8 °F 30.1 in SSW 7.4 mph 7.4 mph 28 % 0 in
15:05 83.8 °F 47.1 °F 30.1 in SW 6.9 mph 6.9 mph 28 % 0 in
15:10 84.4 °F 46.8 °F 30.1 in SW 5.8 mph 5.9 mph 27 % 0 in
15:15 83.8 °F 46.2 °F 30.1 in SSW 4.7 mph 4.7 mph 27 % 0 in
15:20 83.1 °F 45.7 °F 30.1 in SW 10.4 mph 10.4 mph 27 % 0 in
15:25 83.8 °F 46.2 °F 30.1 in WSW 5.8 mph 5.9 mph 27 % 0 in
15:30 83.8 °F 46.2 °F 30.1 in WSW 7.1 mph 7.1 mph 27 % 0 in
15:35 83.8 °F 46.2 °F 30.1 in SW 9.2 mph 9.2 mph 27 % 0 in
15:45 84.2 °F 45.7 °F 30.1 in SW 10.4 mph 10.4 mph 26 % 0 in
15:50 83.7 °F 45.1 °F 30.1 in WSW 5.8 mph 5.8 mph 26 % 0 in
15:55 83.5 °F 45 °F 30.1 in SSW 10.4 mph 10.4 mph 26 % 0 in
16:00 83.3 °F 44.8 °F 30.1 in SSW 6.9 mph 6.9 mph 26 % 0 in
16:05 82.9 °F 44.4 °F 30.1 in South 9.2 mph 9.2 mph 26 % 0 in
16:10 82.6 °F 44.2 °F 30.1 in South 6.9 mph 6.9 mph 26 % 0 in
16:15 82.8 °F 44.4 °F 30.1 in WNW 9.7 mph 9.7 mph 26 % 0 in
16:20 82.9 °F 43.5 °F 30.1 in West 10 mph 10 mph 25 % 0 in
16:21 82.6 °F 43.2 °F 30.1 in SW 8.1 mph 8.1 mph 25 % 0 in
16:26 82.2 °F 43.9 °F 30.1 in South 8.1 mph 8.1 mph 26 % 0 in
16:31 81.7 °F 43.5 °F 30.1 in SW 12.7 mph 12.7 mph 26 % 0 in
16:36 81.3 °F 43.2 °F 30.1 in WSW 6.9 mph 6.9 mph 26 % 0 in
16:41 81.1 °F 43 °F 30.1 in WSW 5.6 mph 5.6 mph 26 % 0 in
16:46 80.2 °F 41.2 °F 30.1 in SW 8.1 mph 8.1 mph 25 % 0 in
16:51 80.2 °F 41.2 °F 30.1 in WSW 8.1 mph 8.1 mph 25 % 0 in
16:56 79.9 °F 40.8 °F 30.1 in WSW 8.1 mph 8.1 mph 25 % 0 in
17:01 79.9 °F 40.8 °F 30.1 in WSW 8.1 mph 8.1 mph 25 % 0 in
17:06 80.2 °F 42.3 °F 30.1 in WSW 5.8 mph 5.8 mph 26 % 0 in
17:11 80.1 °F 42.1 °F 30.1 in South 5.8 mph 5.8 mph 26 % 0 in
17:16 80.1 °F 41.2 °F 30.1 in SW 6.9 mph 6.9 mph 25 % 0 in
17:18 79.9 °F 40.8 °F 30.1 in South 5.8 mph 5.8 mph 25 % 0 in
17:23 79.5 °F 40.6 °F 30.1 in SSW 4.6 mph 4.6 mph 25 % 0 in
17:28 79.7 °F 41.7 °F 30.1 in WSW 6.9 mph 6.9 mph 26 % 0 in
17:33 78.8 °F 41 °F 30.1 in South 6.9 mph 6.9 mph 26 % 0 in
17:38 78.8 °F 39.9 °F 30.1 in SW 6.4 mph 6.4 mph 25 % 0 in
17:43 78.6 °F 40.8 °F 30.1 in WSW 8.1 mph 8.1 mph 26 % 0 in
17:48 78.4 °F 40.6 °F 30.1 in SW 8.1 mph 8.1 mph 26 % 0 in
17:53 78.1 °F 40.5 °F 30 in West 4.6 mph 4.6 mph 26 % 0 in
17:58 78.1 °F 40.5 °F 30 in SSW 6.2 mph 6.2 mph 26 % 0 in
18:03 77.7 °F 40.1 °F 30 in SSW 6.9 mph 6.9 mph 26 % 0 in
18:08 77.5 °F 39.9 °F 30 in SSW 5.8 mph 5.8 mph 26 % 0 in
18:13 77.4 °F 39.7 °F 30 in SSE 5.8 mph 5.8 mph 26 % 0 in
18:18 77.4 °F 39.7 °F 30 in WSW 5.8 mph 5.8 mph 26 % 0 in
18:23 77.2 °F 39.6 °F 30 in SW 4.6 mph 4.6 mph 26 % 0 in
18:28 77.2 °F 40.6 °F 30 in SW 3.5 mph 3.5 mph 27 % 0 in
18:33 77 °F 40.5 °F 30 in SW 3.5 mph 3.5 mph 27 % 0 in
18:38 76.8 °F 41.2 °F 30 in SW 4.6 mph 4.6 mph 28 % 0 in
18:43 76.5 °F 40.8 °F 30 in SSW 3.5 mph 3.5 mph 28 % 0 in
18:48 76.3 °F 40.8 °F 30 in SSW 5.8 mph 5.8 mph 28 % 0 in
18:53 75.7 °F 40.3 °F 30 in SW 4.6 mph 4.6 mph 28 % 0 in
18:58 75.6 °F 40.3 °F 30 in SW 3.5 mph 3.5 mph 28 % 0 in
19:03 75.6 °F 40.3 °F 30 in SSW 4.6 mph 4.6 mph 28 % 0 in
19:08 75.4 °F 39.9 °F 30 in SSW 2.3 mph 2.3 mph 28 % 0 in
19:13 75.2 °F 39.7 °F 30 in SW 4.6 mph 4.6 mph 28 % 0 in
19:18 74.8 °F 39.6 °F 30 in SW 6.9 mph 6.9 mph 28 % 0 in
19:23 74.7 °F 40.3 °F 30 in WSW 3.6 mph 3.6 mph 29 % 0 in
19:28 74.8 °F 40.5 °F 30 in SW 4.6 mph 4.6 mph 29 % 0 in
19:33 74.7 °F 40.3 °F 30 in SSW 2.3 mph 2.4 mph 29 % 0 in
19:38 74.3 °F 39.9 °F 30 in SW 3.5 mph 3.5 mph 29 % 0 in
19:43 74.1 °F 39.7 °F 30 in SW 4.6 mph 4.6 mph 29 % 0 in
19:45 64.2 °F 45.1 °F 30 in Calm   1 mph 50 % 0 in
19:48 73.9 °F 39.7 °F 30 in SW 3.5 mph 3.5 mph 29 % 0 in
19:53 73.6 °F 39.4 °F 30 in West 4.6 mph 4.6 mph 29 % 0 in
19:55 63.9 °F 45 °F 30 in Calm   3 mph 50 % 0 in
19:58 73.4 °F 39.2 °F 30 in SW 3.5 mph 3.5 mph 29 % 0 in
20:03 73.4 °F 40.1 °F 30 in SSW 3.5 mph 3.5 mph 30 % 0 in
20:05 63.1 °F 44.8 °F 30 in Calm     51 % 0 in
20:08 73 °F 40.6 °F 30 in WSW 4.6 mph 4.6 mph 31 % 0 in
20:13 72.7 °F 40.3 °F 30 in SW 4 mph 4 mph 31 % 0 in
20:15 62.8 °F 44.4 °F 30 in East 1 mph 1 mph 51 % 0 in
20:18 72.5 °F 40.1 °F 30 in West 2.3 mph 2.4 mph 31 % 0 in
20:23 72.1 °F 39.7 °F 30 in WSW 3.1 mph 3.1 mph 31 % 0 in
20:25 62.4 °F 44.6 °F 30 in Calm   1 mph 52 % 0 in
20:28 72.1 °F 40.6 °F 30 in SW 3.5 mph 3.5 mph 32 % 0 in
20:33 71.8 °F 40.3 °F 30 in SW 2.3 mph 2.3 mph 32 % 0 in
20:35 62.6 °F 44.8 °F 30 in Calm   1 mph 52 % 0 in
20:38 71.4 °F 39.9 °F 30 in SW 4.6 mph 4.6 mph 32 % 0 in
20:43 71.2 °F 40.6 °F 30 in SW 2.3 mph 2.3 mph 33 % 0 in
20:45 62.2 °F 45.3 °F 30 in Calm   1 mph 54 % 0 in
20:48 71.1 °F 40.5 °F 30 in WSW 3.5 mph 3.5 mph 33 % 0 in
20:53 70.9 °F 41.2 °F 30 in SW 3.5 mph 3.5 mph 34 % 0 in
20:55 62.1 °F 45.1 °F 30 in Calm     54 % 0 in
20:58 70.5 °F 40.8 °F 30 in SW 3.5 mph 3.5 mph 34 % 0 in
21:03 70.3 °F 41.4 °F 30 in SW 2.3 mph 2.3 mph 35 % 0 in
21:08 70.2 °F 41.2 °F 30 in WSW 2.3 mph 2.3 mph 35 % 0 in
21:13 70 °F 41.2 °F 30 in West 2.6 mph 2.6 mph 35 % 0 in
21:15 61.7 °F 45.9 °F 30 in Calm   1 mph 56 % 0 in
21:18 70 °F 41.2 °F 30 in West 2.3 mph 2.3 mph 35 % 0 in
21:23 69.8 °F 41.5 °F 30 in SW 2.3 mph 2.3 mph 36 % 0 in
21:25 61.3 °F 45.5 °F 30 in Calm   1 mph 56 % 0 in
21:28 69.6 °F 41.5 °F 30 in WSW 2.3 mph 2.3 mph 36 % 0 in
21:33 69.4 °F 41.4 °F 30 in West 2.3 mph 2.3 mph 36 % 0 in
21:35 61 °F 45.7 °F 30 in Calm     57 % 0 in
21:38 69.3 °F 41.2 °F 30 in West 2.3 mph 2.3 mph 36 % 0 in
21:43 69.1 °F 41.7 °F 30 in WSW 2.3 mph 2.3 mph 37 % 0 in
21:45 60.8 °F 45.9 °F 30 in Calm     58 % 0 in
21:48 68.9 °F 41.5 °F 30 in West 2 mph 2 mph 37 % 0 in
21:53 68.7 °F 42.1 °F 30 in WSW 1.2 mph   38 % 0 in
21:55 60.6 °F 45.9 °F 30 in Calm   1 mph 58 % 0 in
21:58 68.5 °F 41.9 °F 30 in WSW 0.9 mph   38 % 0 in
22:03 68.4 °F 41.7 °F 30 in SW 1.2 mph   38 % 0 in
22:05 60.8 °F 46.4 °F 30 in NNW 1 mph 2 mph 59 % 0 in
22:08 68.2 °F 42.3 °F 30 in Calm     39 % 0 in
22:13 68 °F 42.1 °F 30 in West 1.2 mph   39 % 0 in
22:15 60.6 °F 46.2 °F 30 in Calm     59 % 0 in
22:18 68 °F 42.1 °F 30 in WNW 1.2 mph   39 % 0 in
22:23 67.8 °F 42.6 °F 30 in SW 1.2 mph 1.2 mph 40 % 0 in
22:25 60.3 °F 46.2 °F 29.9 in Calm     60 % 0 in
22:28 67.6 °F 42.4 °F 30 in SW 2.3 mph 2.3 mph 40 % 0 in
22:33 67.5 °F 43 °F 30 in SW 2.6 mph 2.6 mph 41 % 0 in
22:35 59.9 °F 46 °F 29.9 in Calm     60 % 0 in
22:38 67.3 °F 42.8 °F 30 in WSW 2.3 mph 2.3 mph 41 % 0 in
22:43 67.3 °F 42.8 °F 30 in WSW 3.5 mph 3.5 mph 41 % 0 in
22:45 59.4 °F 45.5 °F 29.9 in NE 2 mph 2 mph 60 % 0 in
22:48 66.9 °F 42.4 °F 30 in SW 2.3 mph   41 % 0 in
22:53 66.7 °F 43 °F 30 in WSW 1.2 mph 1.2 mph 42 % 0 in
22:55 58.8 °F 45.9 °F 30 in Calm   2 mph 62 % 0 in
22:58 66.6 °F 42.6 °F 30 in WSW 2.3 mph 2.3 mph 42 % 0 in
23:03 66.4 °F 42.6 °F 30 in SW 2.3 mph 2.3 mph 42 % 0 in
23:05 58.5 °F 45.5 °F 30 in Calm     62 % 0 in
23:08 66.2 °F 42.4 °F 30 in SW 2.4 mph 2.4 mph 42 % 0 in
23:13 66.2 °F 43 °F 30 in WSW 2.3 mph 2.3 mph 43 % 0 in
23:15 58.3 °F 45.7 °F 30 in Calm     63 % 0 in
23:18 65.8 °F 43.3 °F 30 in SW 2.3 mph 2.3 mph 44 % 0 in
23:23 65.8 °F 43.3 °F 30 in WSW 2.6 mph 2.6 mph 44 % 0 in
23:25 58.1 °F 45.7 °F 30 in Calm   3 mph 63 % 0 in
23:28 65.7 °F 43.2 °F 30 in WSW 2.3 mph 2.3 mph 44 % 0 in
23:33 65.7 °F 43.7 °F 30 in WSW 2.3 mph 2.3 mph 45 % 0 in
23:35 57.9 °F 45.3 °F 30 in Calm   2 mph 63 % 0 in
23:38 65.5 °F 43.5 °F 30 in SW 2.3 mph 2.3 mph 45 % 0 in
23:43 65.5 °F 43.5 °F 30 in WSW 2.3 mph 2.3 mph 45 % 0 in
23:45 57.9 °F 45.3 °F 30 in Calm     63 % 0 in
23:53 65.5 °F 44.1 °F 30 in West 1.6 mph 1.6 mph 46 % 0 in
23:55 57.6 °F 45.1 °F 30 in WSW 1 mph 2 mph 63 % 0 in
23:58 65.5 °F 44.1 °F 30 in West 1.2 mph   46 % 0 in
Meteo Sesrovires
Elogis d' Weather Underground - 3.75 mb

Guio original per  Jim McMurry - jmcmurry@mwt.net Adaptat per a la plantilla per  Wim van der Kuil - Leuven-Template.eu

Trobareu la nostra informacio del temps tambe a:

Weather Underground

AWEKAS